sensor_id;sensor_type;location;lat;lon;timestamp;P1;durP1;ratioP1;P2;durP2;ratioP2
30862;SDS011;17573;55.922;37.540;2023-04-15T00:00:38;4.45;;;4.00;;
30862;SDS011;17573;55.922;37.540;2023-04-15T00:03:04;6.68;;;4.95;;
30862;SDS011;17573;55.922;37.540;2023-04-15T00:05:30;6.60;;;4.30;;
30862;SDS011;17573;55.922;37.540;2023-04-15T00:07:56;4.85;;;4.18;;
30862;SDS011;17573;55.922;37.540;2023-04-15T00:10:23;11.73;;;4.35;;
30862;SDS011;17573;55.922;37.540;2023-04-15T00:12:49;5.22;;;4.70;;
30862;SDS011;17573;55.922;37.540;2023-04-15T00:15:16;5.70;;;4.63;;
30862;SDS011;17573;55.922;37.540;2023-04-15T00:17:42;6.95;;;4.65;;
30862;SDS011;17573;55.922;37.540;2023-04-15T00:20:08;6.43;;;4.50;;
30862;SDS011;17573;55.922;37.540;2023-04-15T00:22:35;9.73;;;4.75;;
30862;SDS011;17573;55.922;37.540;2023-04-15T00:25:01;4.95;;;4.53;;
30862;SDS011;17573;55.922;37.540;2023-04-15T00:27:28;10.43;;;5.30;;
30862;SDS011;17573;55.922;37.540;2023-04-15T00:29:54;8.15;;;4.25;;
30862;SDS011;17573;55.922;37.540;2023-04-15T00:32:20;6.20;;;5.13;;
30862;SDS011;17573;55.922;37.540;2023-04-15T00:34:46;5.00;;;4.60;;
30862;SDS011;17573;55.922;37.540;2023-04-15T00:37:12;6.07;;;4.18;;
30862;SDS011;17573;55.922;37.540;2023-04-15T00:39:38;5.55;;;4.72;;
30862;SDS011;17573;55.922;37.540;2023-04-15T00:42:04;8.43;;;4.32;;
30862;SDS011;17573;55.922;37.540;2023-04-15T00:44:30;6.13;;;4.65;;
30862;SDS011;17573;55.922;37.540;2023-04-15T00:46:56;8.00;;;5.20;;
30862;SDS011;17573;55.922;37.540;2023-04-15T00:49:22;8.60;;;4.63;;
30862;SDS011;17573;55.922;37.540;2023-04-15T00:51:49;8.27;;;4.82;;
30862;SDS011;17573;55.922;37.540;2023-04-15T00:54:15;7.13;;;5.20;;
30862;SDS011;17573;55.922;37.540;2023-04-15T00:56:42;8.25;;;5.10;;
30862;SDS011;17573;55.922;37.540;2023-04-15T00:59:07;8.65;;;4.97;;
30862;SDS011;17573;55.922;37.540;2023-04-15T01:01:34;5.15;;;4.50;;
30862;SDS011;17573;55.922;37.540;2023-04-15T01:04:01;13.38;;;4.45;;
30862;SDS011;17573;55.922;37.540;2023-04-15T01:06:28;6.50;;;4.40;;
30862;SDS011;17573;55.922;37.540;2023-04-15T01:08:54;5.30;;;4.05;;
30862;SDS011;17573;55.922;37.540;2023-04-15T01:11:20;6.93;;;4.95;;
30862;SDS011;17573;55.922;37.540;2023-04-15T01:13:48;5.72;;;4.85;;
30862;SDS011;17573;55.922;37.540;2023-04-15T01:16:17;6.28;;;5.28;;
30862;SDS011;17573;55.922;37.540;2023-04-15T01:18:43;17.95;;;5.55;;
30862;SDS011;17573;55.922;37.540;2023-04-15T01:21:09;7.22;;;4.43;;
30862;SDS011;17573;55.922;37.540;2023-04-15T01:23:36;10.60;;;5.00;;
30862;SDS011;17573;55.922;37.540;2023-04-15T01:26:06;5.93;;;4.50;;
30862;SDS011;17573;55.922;37.540;2023-04-15T01:28:35;8.40;;;4.45;;
30862;SDS011;17573;55.922;37.540;2023-04-15T01:33:35;6.10;;;4.63;;
30862;SDS011;17573;55.922;37.540;2023-04-15T01:36:20;5.53;;;4.97;;
30862;SDS011;17573;55.922;37.540;2023-04-15T01:38:45;6.30;;;5.30;;
30862;SDS011;17573;55.922;37.540;2023-04-15T01:41:13;5.15;;;4.45;;
30862;SDS011;17573;55.922;37.540;2023-04-15T01:43:40;6.05;;;4.38;;
30862;SDS011;17573;55.922;37.540;2023-04-15T01:46:09;8.52;;;4.22;;
30862;SDS011;17573;55.922;37.540;2023-04-15T01:48:36;5.78;;;3.78;;
30862;SDS011;17573;55.922;37.540;2023-04-15T01:51:03;7.40;;;4.55;;
30862;SDS011;17573;55.922;37.540;2023-04-15T01:53:31;5.47;;;4.40;;
30862;SDS011;17573;55.922;37.540;2023-04-15T01:55:58;9.68;;;4.47;;
30862;SDS011;17573;55.922;37.540;2023-04-15T01:58:25;8.88;;;6.15;;
30862;SDS011;17573;55.922;37.540;2023-04-15T02:00:52;21.38;;;5.40;;
30862;SDS011;17573;55.922;37.540;2023-04-15T02:03:19;13.07;;;5.38;;
30862;SDS011;17573;55.922;37.540;2023-04-15T02:05:47;19.00;;;6.07;;
30862;SDS011;17573;55.922;37.540;2023-04-15T02:08:14;9.30;;;4.18;;
30862;SDS011;17573;55.922;37.540;2023-04-15T02:10:42;11.85;;;4.22;;
30862;SDS011;17573;55.922;37.540;2023-04-15T02:13:09;14.35;;;4.85;;
30862;SDS011;17573;55.922;37.540;2023-04-15T02:15:36;20.92;;;5.07;;
30862;SDS011;17573;55.922;37.540;2023-04-15T02:18:03;14.75;;;4.05;;
30862;SDS011;17573;55.922;37.540;2023-04-15T02:20:30;6.60;;;4.55;;
30862;SDS011;17573;55.922;37.540;2023-04-15T02:22:58;9.52;;;4.30;;
30862;SDS011;17573;55.922;37.540;2023-04-15T02:25:25;9.27;;;4.50;;
30862;SDS011;17573;55.922;37.540;2023-04-15T02:27:52;11.13;;;4.38;;
30862;SDS011;17573;55.922;37.540;2023-04-15T02:30:19;8.57;;;4.45;;
30862;SDS011;17573;55.922;37.540;2023-04-15T02:32:46;8.15;;;4.22;;
30862;SDS011;17573;55.922;37.540;2023-04-15T02:35:13;9.93;;;4.07;;
30862;SDS011;17573;55.922;37.540;2023-04-15T02:37:41;11.65;;;5.05;;
30862;SDS011;17573;55.922;37.540;2023-04-15T02:40:12;5.05;;;4.32;;
30862;SDS011;17573;55.922;37.540;2023-04-15T02:42:39;5.88;;;5.28;;
30862;SDS011;17573;55.922;37.540;2023-04-15T02:45:10;10.98;;;5.25;;
30862;SDS011;17573;55.922;37.540;2023-04-15T02:47:39;10.70;;;5.28;;
30862;SDS011;17573;55.922;37.540;2023-04-15T02:50:07;11.35;;;4.75;;
30862;SDS011;17573;55.922;37.540;2023-04-15T02:52:35;12.20;;;6.00;;
30862;SDS011;17573;55.922;37.540;2023-04-15T02:55:02;8.00;;;5.10;;
30862;SDS011;17573;55.922;37.540;2023-04-15T02:57:30;6.78;;;4.65;;
30862;SDS011;17573;55.922;37.540;2023-04-15T03:00:04;5.80;;;4.90;;
30862;SDS011;17573;55.922;37.540;2023-04-15T03:02:34;5.70;;;4.78;;
30862;SDS011;17573;55.922;37.540;2023-04-15T03:05:02;7.88;;;4.53;;
30862;SDS011;17573;55.922;37.540;2023-04-15T03:07:30;7.65;;;4.57;;
30862;SDS011;17573;55.922;37.540;2023-04-15T03:09:58;8.00;;;4.53;;
30862;SDS011;17573;55.922;37.540;2023-04-15T03:12:25;5.30;;;4.90;;
30862;SDS011;17573;55.922;37.540;2023-04-15T03:14:55;9.50;;;6.45;;
30862;SDS011;17573;55.922;37.540;2023-04-15T03:17:29;10.73;;;5.47;;
30862;SDS011;17573;55.922;37.540;2023-04-15T03:19:56;11.20;;;4.68;;
30862;SDS011;17573;55.922;37.540;2023-04-15T03:22:24;10.45;;;5.05;;
30862;SDS011;17573;55.922;37.540;2023-04-15T03:24:53;11.18;;;5.35;;
30862;SDS011;17573;55.922;37.540;2023-04-15T03:27:20;8.13;;;4.93;;
30862;SDS011;17573;55.922;37.540;2023-04-15T03:29:48;11.50;;;4.72;;
30862;SDS011;17573;55.922;37.540;2023-04-15T03:32:16;7.50;;;4.78;;
30862;SDS011;17573;55.922;37.540;2023-04-15T03:34:43;5.07;;;4.60;;
30862;SDS011;17573;55.922;37.540;2023-04-15T03:37:11;13.68;;;5.20;;
30862;SDS011;17573;55.922;37.540;2023-04-15T03:39:38;8.35;;;5.18;;
30862;SDS011;17573;55.922;37.540;2023-04-15T03:42:05;8.15;;;5.20;;
30862;SDS011;17573;55.922;37.540;2023-04-15T03:44:32;7.50;;;4.82;;
30862;SDS011;17573;55.922;37.540;2023-04-15T03:46:59;7.80;;;4.93;;
30862;SDS011;17573;55.922;37.540;2023-04-15T03:49:26;7.30;;;4.32;;
30862;SDS011;17573;55.922;37.540;2023-04-15T03:51:53;12.57;;;4.70;;
30862;SDS011;17573;55.922;37.540;2023-04-15T03:54:20;19.17;;;4.95;;
30862;SDS011;17573;55.922;37.540;2023-04-15T03:56:47;7.35;;;5.03;;
30862;SDS011;17573;55.922;37.540;2023-04-15T03:59:14;12.75;;;5.47;;
30862;SDS011;17573;55.922;37.540;2023-04-15T04:01:41;10.88;;;5.60;;
30862;SDS011;17573;55.922;37.540;2023-04-15T04:04:08;7.25;;;4.95;;
30862;SDS011;17573;55.922;37.540;2023-04-15T04:06:35;10.57;;;5.03;;
30862;SDS011;17573;55.922;37.540;2023-04-15T04:09:02;9.43;;;5.20;;
30862;SDS011;17573;55.922;37.540;2023-04-15T04:11:29;14.20;;;5.18;;
30862;SDS011;17573;55.922;37.540;2023-04-15T04:13:57;7.45;;;5.68;;
30862;SDS011;17573;55.922;37.540;2023-04-15T04:16:24;8.13;;;6.30;;
30862;SDS011;17573;55.922;37.540;2023-04-15T04:18:51;10.77;;;4.95;;
30862;SDS011;17573;55.922;37.540;2023-04-15T04:21:19;8.43;;;5.13;;
30862;SDS011;17573;55.922;37.540;2023-04-15T04:23:47;13.00;;;5.80;;
30862;SDS011;17573;55.922;37.540;2023-04-15T04:26:13;11.27;;;5.60;;
30862;SDS011;17573;55.922;37.540;2023-04-15T04:28:40;8.85;;;4.93;;
30862;SDS011;17573;55.922;37.540;2023-04-15T04:31:07;8.23;;;5.65;;
30862;SDS011;17573;55.922;37.540;2023-04-15T04:33:34;4.28;;;3.88;;
30862;SDS011;17573;55.922;37.540;2023-04-15T04:36:01;8.70;;;4.82;;
30862;SDS011;17573;55.922;37.540;2023-04-15T04:38:28;15.13;;;6.43;;
30862;SDS011;17573;55.922;37.540;2023-04-15T04:40:55;5.53;;;4.80;;
30862;SDS011;17573;55.922;37.540;2023-04-15T04:43:22;4.93;;;4.55;;
30862;SDS011;17573;55.922;37.540;2023-04-15T04:45:49;14.02;;;4.80;;
30862;SDS011;17573;55.922;37.540;2023-04-15T04:48:16;10.75;;;5.47;;
30862;SDS011;17573;55.922;37.540;2023-04-15T04:50:44;10.25;;;5.47;;
30862;SDS011;17573;55.922;37.540;2023-04-15T04:53:12;5.72;;;4.45;;
30862;SDS011;17573;55.922;37.540;2023-04-15T04:55:39;6.50;;;4.93;;
30862;SDS011;17573;55.922;37.540;2023-04-15T04:58:06;17.10;;;5.25;;
30862;SDS011;17573;55.922;37.540;2023-04-15T05:00:33;19.27;;;5.05;;
30862;SDS011;17573;55.922;37.540;2023-04-15T05:03:00;8.77;;;5.25;;
30862;SDS011;17573;55.922;37.540;2023-04-15T05:05:27;7.40;;;5.35;;
30862;SDS011;17573;55.922;37.540;2023-04-15T05:07:54;4.90;;;4.22;;
30862;SDS011;17573;55.922;37.540;2023-04-15T05:10:22;17.02;;;6.53;;
30862;SDS011;17573;55.922;37.540;2023-04-15T05:12:49;10.95;;;4.55;;
30862;SDS011;17573;55.922;37.540;2023-04-15T05:15:17;14.20;;;5.15;;
30862;SDS011;17573;55.922;37.540;2023-04-15T05:17:44;7.53;;;4.22;;
30862;SDS011;17573;55.922;37.540;2023-04-15T05:20:11;13.27;;;5.13;;
30862;SDS011;17573;55.922;37.540;2023-04-15T05:22:39;13.35;;;5.75;;
30862;SDS011;17573;55.922;37.540;2023-04-15T05:25:06;10.43;;;4.78;;
30862;SDS011;17573;55.922;37.540;2023-04-15T05:27:34;11.38;;;5.20;;
30862;SDS011;17573;55.922;37.540;2023-04-15T05:30:01;5.10;;;4.50;;
30862;SDS011;17573;55.922;37.540;2023-04-15T05:32:28;11.02;;;5.03;;
30862;SDS011;17573;55.922;37.540;2023-04-15T05:34:56;8.07;;;5.25;;
30862;SDS011;17573;55.922;37.540;2023-04-15T05:37:23;5.05;;;3.83;;
30862;SDS011;17573;55.922;37.540;2023-04-15T05:39:50;5.88;;;4.45;;
30862;SDS011;17573;55.922;37.540;2023-04-15T05:42:17;15.68;;;5.07;;
30862;SDS011;17573;55.922;37.540;2023-04-15T05:44:44;11.38;;;5.85;;
30862;SDS011;17573;55.922;37.540;2023-04-15T05:47:11;5.28;;;4.55;;
30862;SDS011;17573;55.922;37.540;2023-04-15T05:49:38;13.27;;;3.83;;
30862;SDS011;17573;55.922;37.540;2023-04-15T05:52:05;11.18;;;5.32;;
30862;SDS011;17573;55.922;37.540;2023-04-15T05:54:32;9.65;;;4.63;;
30862;SDS011;17573;55.922;37.540;2023-04-15T05:56:59;5.07;;;4.55;;
30862;SDS011;17573;55.922;37.540;2023-04-15T05:59:26;9.10;;;5.60;;
30862;SDS011;17573;55.922;37.540;2023-04-15T06:01:53;9.30;;;5.20;;
30862;SDS011;17573;55.922;37.540;2023-04-15T06:04:20;10.52;;;4.97;;
30862;SDS011;17573;55.922;37.540;2023-04-15T06:06:48;11.73;;;4.63;;
30862;SDS011;17573;55.922;37.540;2023-04-15T06:09:15;7.22;;;4.78;;
30862;SDS011;17573;55.922;37.540;2023-04-15T06:11:42;6.15;;;4.70;;
30862;SDS011;17573;55.922;37.540;2023-04-15T06:14:09;10.68;;;4.30;;
30862;SDS011;17573;55.922;37.540;2023-04-15T06:16:36;5.32;;;4.57;;
30862;SDS011;17573;55.922;37.540;2023-04-15T06:19:03;15.07;;;4.60;;
30862;SDS011;17573;55.922;37.540;2023-04-15T06:21:30;10.93;;;5.65;;
30862;SDS011;17573;55.922;37.540;2023-04-15T06:23:58;12.13;;;4.75;;
30862;SDS011;17573;55.922;37.540;2023-04-15T06:26:27;10.45;;;3.95;;
30862;SDS011;17573;55.922;37.540;2023-04-15T06:28:54;16.60;;;4.80;;
30862;SDS011;17573;55.922;37.540;2023-04-15T06:31:21;11.27;;;5.85;;
30862;SDS011;17573;55.922;37.540;2023-04-15T06:33:48;16.95;;;6.05;;
30862;SDS011;17573;55.922;37.540;2023-04-15T06:36:15;9.10;;;5.75;;
30862;SDS011;17573;55.922;37.540;2023-04-15T06:38:42;11.68;;;5.05;;
30862;SDS011;17573;55.922;37.540;2023-04-15T06:41:09;9.75;;;5.15;;
30862;SDS011;17573;55.922;37.540;2023-04-15T06:43:36;15.35;;;5.15;;
30862;SDS011;17573;55.922;37.540;2023-04-15T06:46:03;7.72;;;4.75;;
30862;SDS011;17573;55.922;37.540;2023-04-15T06:48:31;17.88;;;4.68;;
30862;SDS011;17573;55.922;37.540;2023-04-15T06:50:58;12.48;;;5.45;;
30862;SDS011;17573;55.922;37.540;2023-04-15T06:53:25;12.60;;;5.00;;
30862;SDS011;17573;55.922;37.540;2023-04-15T06:55:55;16.25;;;6.05;;
30862;SDS011;17573;55.922;37.540;2023-04-15T06:58:22;19.23;;;5.20;;
30862;SDS011;17573;55.922;37.540;2023-04-15T07:00:49;8.35;;;4.97;;
30862;SDS011;17573;55.922;37.540;2023-04-15T07:03:16;9.52;;;4.75;;
30862;SDS011;17573;55.922;37.540;2023-04-15T07:05:43;4.85;;;4.35;;
30862;SDS011;17573;55.922;37.540;2023-04-15T07:08:11;20.60;;;4.90;;
30862;SDS011;17573;55.922;37.540;2023-04-15T07:10:38;9.00;;;4.20;;
30862;SDS011;17573;55.922;37.540;2023-04-15T07:13:05;9.32;;;4.85;;
30862;SDS011;17573;55.922;37.540;2023-04-15T07:15:34;20.75;;;5.10;;
30862;SDS011;17573;55.922;37.540;2023-04-15T07:18:01;18.70;;;6.72;;
30862;SDS011;17573;55.922;37.540;2023-04-15T07:20:28;9.27;;;5.35;;
30862;SDS011;17573;55.922;37.540;2023-04-15T07:22:55;13.77;;;5.05;;
30862;SDS011;17573;55.922;37.540;2023-04-15T07:25:23;13.73;;;5.53;;
30862;SDS011;17573;55.922;37.540;2023-04-15T07:27:49;15.38;;;4.82;;
30862;SDS011;17573;55.922;37.540;2023-04-15T07:30:17;20.38;;;5.75;;
30862;SDS011;17573;55.922;37.540;2023-04-15T07:32:44;20.13;;;5.38;;
30862;SDS011;17573;55.922;37.540;2023-04-15T07:35:11;12.77;;;4.63;;
30862;SDS011;17573;55.922;37.540;2023-04-15T07:37:38;21.35;;;5.53;;
30862;SDS011;17573;55.922;37.540;2023-04-15T07:40:05;7.47;;;4.55;;
30862;SDS011;17573;55.922;37.540;2023-04-15T07:42:34;7.03;;;4.35;;
30862;SDS011;17573;55.922;37.540;2023-04-15T07:45:02;12.63;;;5.18;;
30862;SDS011;17573;55.922;37.540;2023-04-15T07:47:29;9.77;;;4.78;;
30862;SDS011;17573;55.922;37.540;2023-04-15T07:49:56;8.73;;;4.57;;
30862;SDS011;17573;55.922;37.540;2023-04-15T07:52:23;24.05;;;7.15;;
30862;SDS011;17573;55.922;37.540;2023-04-15T07:54:50;9.60;;;4.82;;
30862;SDS011;17573;55.922;37.540;2023-04-15T07:57:17;22.60;;;6.00;;
30862;SDS011;17573;55.922;37.540;2023-04-15T07:59:44;8.88;;;4.25;;
30862;SDS011;17573;55.922;37.540;2023-04-15T08:02:11;17.42;;;4.40;;
30862;SDS011;17573;55.922;37.540;2023-04-15T08:04:38;14.63;;;9.15;;
30862;SDS011;17573;55.922;37.540;2023-04-15T08:07:06;14.88;;;4.65;;
30862;SDS011;17573;55.922;37.540;2023-04-15T08:09:33;14.23;;;4.82;;
30862;SDS011;17573;55.922;37.540;2023-04-15T08:12:00;18.92;;;3.80;;
30862;SDS011;17573;55.922;37.540;2023-04-15T08:14:27;8.50;;;3.55;;
30862;SDS011;17573;55.922;37.540;2023-04-15T08:16:54;17.52;;;4.47;;
30862;SDS011;17573;55.922;37.540;2023-04-15T08:19:21;10.75;;;3.97;;
30862;SDS011;17573;55.922;37.540;2023-04-15T08:21:50;10.52;;;3.75;;
30862;SDS011;17573;55.922;37.540;2023-04-15T08:24:17;14.43;;;8.30;;
30862;SDS011;17573;55.922;37.540;2023-04-15T08:26:45;8.32;;;3.42;;
30862;SDS011;17573;55.922;37.540;2023-04-15T08:29:12;14.93;;;3.83;;
30862;SDS011;17573;55.922;37.540;2023-04-15T08:31:39;20.77;;;3.67;;
30862;SDS011;17573;55.922;37.540;2023-04-15T08:34:06;9.38;;;3.35;;
30862;SDS011;17573;55.922;37.540;2023-04-15T08:36:33;10.77;;;3.53;;
30862;SDS011;17573;55.922;37.540;2023-04-15T08:39:01;17.45;;;3.15;;
30862;SDS011;17573;55.922;37.540;2023-04-15T08:41:39;14.35;;;4.07;;
30862;SDS011;17573;55.922;37.540;2023-04-15T08:44:07;11.48;;;3.47;;
30862;SDS011;17573;55.922;37.540;2023-04-15T08:46:34;27.65;;;5.38;;
30862;SDS011;17573;55.922;37.540;2023-04-15T08:49:04;18.98;;;3.30;;
30862;SDS011;17573;55.922;37.540;2023-04-15T08:51:35;10.77;;;4.00;;
30862;SDS011;17573;55.922;37.540;2023-04-15T08:54:03;23.25;;;4.45;;
30862;SDS011;17573;55.922;37.540;2023-04-15T08:56:30;5.82;;;3.30;;
30862;SDS011;17573;55.922;37.540;2023-04-15T08:59:01;10.32;;;3.42;;
30862;SDS011;17573;55.922;37.540;2023-04-15T09:01:29;9.20;;;3.58;;
30862;SDS011;17573;55.922;37.540;2023-04-15T09:03:58;16.05;;;4.35;;
30862;SDS011;17573;55.922;37.540;2023-04-15T09:06:25;10.48;;;4.30;;
30862;SDS011;17573;55.922;37.540;2023-04-15T09:08:52;10.80;;;4.88;;
30862;SDS011;17573;55.922;37.540;2023-04-15T09:11:20;13.32;;;4.13;;
30862;SDS011;17573;55.922;37.540;2023-04-15T09:13:48;7.22;;;3.90;;
30862;SDS011;17573;55.922;37.540;2023-04-15T09:16:15;15.88;;;4.35;;
30862;SDS011;17573;55.922;37.540;2023-04-15T09:18:42;17.60;;;3.97;;
30862;SDS011;17573;55.922;37.540;2023-04-15T09:21:09;6.43;;;3.45;;
30862;SDS011;17573;55.922;37.540;2023-04-15T09:23:39;13.57;;;4.05;;
30862;SDS011;17573;55.922;37.540;2023-04-15T09:26:30;17.80;;;3.03;;
30862;SDS011;17573;55.922;37.540;2023-04-15T09:29:05;13.60;;;5.38;;
30862;SDS011;17573;55.922;37.540;2023-04-15T09:31:36;12.30;;;4.78;;
30862;SDS011;17573;55.922;37.540;2023-04-15T09:34:03;12.70;;;3.88;;
30862;SDS011;17573;55.922;37.540;2023-04-15T09:39:27;7.70;;;4.68;;
30862;SDS011;17573;55.922;37.540;2023-04-15T09:42:11;8.57;;;4.60;;
30862;SDS011;17573;55.922;37.540;2023-04-15T09:44:38;9.07;;;3.85;;
30862;SDS011;17573;55.922;37.540;2023-04-15T09:47:05;9.00;;;4.75;;
30862;SDS011;17573;55.922;37.540;2023-04-15T09:49:33;9.20;;;3.95;;
30862;SDS011;17573;55.922;37.540;2023-04-15T09:52:00;11.65;;;3.97;;
30862;SDS011;17573;55.922;37.540;2023-04-15T09:54:36;12.52;;;4.00;;
30862;SDS011;17573;55.922;37.540;2023-04-15T09:57:04;7.10;;;3.67;;
30862;SDS011;17573;55.922;37.540;2023-04-15T09:59:35;8.38;;;4.22;;
30862;SDS011;17573;55.922;37.540;2023-04-15T10:02:05;11.75;;;4.30;;
30862;SDS011;17573;55.922;37.540;2023-04-15T10:04:35;15.90;;;4.23;;
30862;SDS011;17573;55.922;37.540;2023-04-15T10:07:07;10.75;;;4.47;;
30862;SDS011;17573;55.922;37.540;2023-04-15T10:09:35;14.50;;;4.85;;
30862;SDS011;17573;55.922;37.540;2023-04-15T10:12:02;14.68;;;4.68;;
30862;SDS011;17573;55.922;37.540;2023-04-15T10:14:32;13.10;;;4.70;;
30862;SDS011;17573;55.922;37.540;2023-04-15T10:17:01;12.00;;;3.60;;
30862;SDS011;17573;55.922;37.540;2023-04-15T10:19:30;14.57;;;4.93;;
30862;SDS011;17573;55.922;37.540;2023-04-15T10:21:59;16.20;;;5.20;;
30862;SDS011;17573;55.922;37.540;2023-04-15T10:24:26;10.40;;;4.07;;
30862;SDS011;17573;55.922;37.540;2023-04-15T10:26:54;12.55;;;3.78;;
30862;SDS011;17573;55.922;37.540;2023-04-15T10:29:21;11.98;;;3.95;;
30862;SDS011;17573;55.922;37.540;2023-04-15T10:31:52;6.38;;;3.60;;
30862;SDS011;17573;55.922;37.540;2023-04-15T10:34:21;10.80;;;3.80;;
30862;SDS011;17573;55.922;37.540;2023-04-15T10:36:50;11.55;;;4.30;;
30862;SDS011;17573;55.922;37.540;2023-04-15T10:44:43;9.10;;;3.75;;
30862;SDS011;17573;55.922;37.540;2023-04-15T10:47:15;10.57;;;4.88;;
30862;SDS011;17573;55.922;37.540;2023-04-15T10:49:46;8.68;;;4.35;;
30862;SDS011;17573;55.922;37.540;2023-04-15T10:52:17;18.92;;;4.30;;
30862;SDS011;17573;55.922;37.540;2023-04-15T10:54:49;10.48;;;3.60;;
30862;SDS011;17573;55.922;37.540;2023-04-15T10:57:21;8.02;;;4.10;;
30862;SDS011;17573;55.922;37.540;2023-04-15T10:59:59;12.43;;;4.55;;
30862;SDS011;17573;55.922;37.540;2023-04-15T11:02:43;15.63;;;6.13;;
30862;SDS011;17573;55.922;37.540;2023-04-15T11:05:18;21.85;;;5.10;;
30862;SDS011;17573;55.922;37.540;2023-04-15T11:07:47;16.02;;;3.92;;
30862;SDS011;17573;55.922;37.540;2023-04-15T11:12:43;8.57;;;3.55;;
30862;SDS011;17573;55.922;37.540;2023-04-15T11:18:16;8.43;;;4.05;;
30862;SDS011;17573;55.922;37.540;2023-04-15T11:20:48;10.05;;;4.82;;
30862;SDS011;17573;55.922;37.540;2023-04-15T11:23:27;12.38;;;4.18;;
30862;SDS011;17573;55.922;37.540;2023-04-15T11:25:55;18.42;;;4.63;;
30862;SDS011;17573;55.922;37.540;2023-04-15T11:28:27;8.45;;;4.72;;
30862;SDS011;17573;55.922;37.540;2023-04-15T11:30:56;14.02;;;4.22;;
30862;SDS011;17573;55.922;37.540;2023-04-15T11:33:23;9.15;;;4.53;;
30862;SDS011;17573;55.922;37.540;2023-04-15T11:35:51;14.15;;;4.35;;
30862;SDS011;17573;55.922;37.540;2023-04-15T11:38:22;16.00;;;5.05;;
30862;SDS011;17573;55.922;37.540;2023-04-15T11:40:49;19.35;;;4.55;;
30862;SDS011;17573;55.922;37.540;2023-04-15T11:43:18;6.78;;;3.45;;
30862;SDS011;17573;55.922;37.540;2023-04-15T11:45:47;12.15;;;3.97;;
30862;SDS011;17573;55.922;37.540;2023-04-15T11:48:15;11.15;;;3.35;;
30862;SDS011;17573;55.922;37.540;2023-04-15T11:50:42;16.42;;;4.55;;
30862;SDS011;17573;55.922;37.540;2023-04-15T11:53:09;8.23;;;4.18;;
30862;SDS011;17573;55.922;37.540;2023-04-15T11:55:42;18.45;;;4.53;;
30862;SDS011;17573;55.922;37.540;2023-04-15T11:58:23;25.40;;;4.82;;
30862;SDS011;17573;55.922;37.540;2023-04-15T12:00:54;12.65;;;4.38;;
30862;SDS011;17573;55.922;37.540;2023-04-15T12:03:28;14.30;;;3.92;;
30862;SDS011;17573;55.922;37.540;2023-04-15T12:08:56;7.05;;;4.38;;
30862;SDS011;17573;55.922;37.540;2023-04-15T12:13:56;9.60;;;4.22;;
30862;SDS011;17573;55.922;37.540;2023-04-15T12:16:23;10.35;;;4.22;;
30862;SDS011;17573;55.922;37.540;2023-04-15T12:18:53;7.82;;;3.97;;
30862;SDS011;17573;55.922;37.540;2023-04-15T12:21:21;9.93;;;3.78;;
30862;SDS011;17573;55.922;37.540;2023-04-15T12:23:49;5.88;;;3.25;;
30862;SDS011;17573;55.922;37.540;2023-04-15T12:26:16;3.72;;;2.47;;
30862;SDS011;17573;55.922;37.540;2023-04-15T12:28:43;11.07;;;4.07;;
30862;SDS011;17573;55.922;37.540;2023-04-15T12:31:09;17.00;;;4.10;;
30862;SDS011;17573;55.922;37.540;2023-04-15T12:33:35;7.65;;;3.63;;
30862;SDS011;17573;55.922;37.540;2023-04-15T12:36:02;20.08;;;4.15;;
30862;SDS011;17573;55.922;37.540;2023-04-15T12:38:29;6.65;;;3.80;;
30862;SDS011;17573;55.922;37.540;2023-04-15T12:40:59;8.70;;;4.65;;
30862;SDS011;17573;55.922;37.540;2023-04-15T12:43:25;8.25;;;4.72;;
30862;SDS011;17573;55.922;37.540;2023-04-15T12:45:51;7.32;;;4.30;;
30862;SDS011;17573;55.922;37.540;2023-04-15T12:48:17;9.52;;;4.50;;
30862;SDS011;17573;55.922;37.540;2023-04-15T12:50:43;15.77;;;4.65;;
30862;SDS011;17573;55.922;37.540;2023-04-15T12:53:09;8.55;;;4.68;;
30862;SDS011;17573;55.922;37.540;2023-04-15T12:55:35;11.00;;;4.45;;
30862;SDS011;17573;55.922;37.540;2023-04-15T12:58:01;6.70;;;4.47;;
30862;SDS011;17573;55.922;37.540;2023-04-15T13:00:27;18.45;;;4.47;;
30862;SDS011;17573;55.922;37.540;2023-04-15T13:02:53;10.73;;;4.45;;
30862;SDS011;17573;55.922;37.540;2023-04-15T13:05:19;7.18;;;4.07;;
30862;SDS011;17573;55.922;37.540;2023-04-15T13:07:45;8.60;;;4.70;;
30862;SDS011;17573;55.922;37.540;2023-04-15T13:10:11;11.15;;;4.88;;
30862;SDS011;17573;55.922;37.540;2023-04-15T13:12:37;9.63;;;5.60;;
30862;SDS011;17573;55.922;37.540;2023-04-15T13:15:04;16.17;;;6.90;;
30862;SDS011;17573;55.922;37.540;2023-04-15T13:17:31;21.98;;;7.35;;
30862;SDS011;17573;55.922;37.540;2023-04-15T13:19:57;18.52;;;7.65;;
30862;SDS011;17573;55.922;37.540;2023-04-15T13:22:23;13.77;;;7.35;;
30862;SDS011;17573;55.922;37.540;2023-04-15T13:24:50;15.23;;;8.52;;
30862;SDS011;17573;55.922;37.540;2023-04-15T13:27:16;18.23;;;8.57;;
30862;SDS011;17573;55.922;37.540;2023-04-15T13:29:43;24.40;;;10.43;;
30862;SDS011;17573;55.922;37.540;2023-04-15T13:32:09;17.92;;;9.95;;
30862;SDS011;17573;55.922;37.540;2023-04-15T13:34:35;22.65;;;10.57;;
30862;SDS011;17573;55.922;37.540;2023-04-15T13:37:05;18.15;;;7.82;;
30862;SDS011;17573;55.922;37.540;2023-04-15T13:39:34;9.63;;;5.22;;
30862;SDS011;17573;55.922;37.540;2023-04-15T13:42:00;11.93;;;6.45;;
30862;SDS011;17573;55.922;37.540;2023-04-15T13:44:27;15.68;;;9.23;;
30862;SDS011;17573;55.922;37.540;2023-04-15T13:46:54;14.30;;;10.48;;
30862;SDS011;17573;55.922;37.540;2023-04-15T13:49:20;25.95;;;15.40;;
30862;SDS011;17573;55.922;37.540;2023-04-15T13:51:47;25.08;;;12.23;;
30862;SDS011;17573;55.922;37.540;2023-04-15T13:54:13;28.85;;;12.65;;
30862;SDS011;17573;55.922;37.540;2023-04-15T13:56:40;27.10;;;11.45;;
30862;SDS011;17573;55.922;37.540;2023-04-15T13:59:06;16.33;;;10.27;;
30862;SDS011;17573;55.922;37.540;2023-04-15T14:01:33;21.15;;;9.27;;
30862;SDS011;17573;55.922;37.540;2023-04-15T14:04:00;9.60;;;6.47;;
30862;SDS011;17573;55.922;37.540;2023-04-15T14:06:27;20.60;;;9.82;;
30862;SDS011;17573;55.922;37.540;2023-04-15T14:08:53;15.93;;;5.75;;
30862;SDS011;17573;55.922;37.540;2023-04-15T14:11:20;15.65;;;6.65;;
30862;SDS011;17573;55.922;37.540;2023-04-15T14:13:46;11.43;;;6.85;;
30862;SDS011;17573;55.922;37.540;2023-04-15T14:16:13;24.45;;;10.27;;
30862;SDS011;17573;55.922;37.540;2023-04-15T14:18:39;14.55;;;7.53;;
30862;SDS011;17573;55.922;37.540;2023-04-15T14:21:05;16.17;;;7.63;;
30862;SDS011;17573;55.922;37.540;2023-04-15T14:23:31;14.70;;;9.15;;
30862;SDS011;17573;55.922;37.540;2023-04-15T14:25:58;15.13;;;6.90;;
30862;SDS011;17573;55.922;37.540;2023-04-15T14:28:24;12.93;;;6.55;;
30862;SDS011;17573;55.922;37.540;2023-04-15T14:30:51;20.58;;;10.60;;
30862;SDS011;17573;55.922;37.540;2023-04-15T14:33:18;24.75;;;8.90;;
30862;SDS011;17573;55.922;37.540;2023-04-15T14:35:44;29.65;;;8.82;;
30862;SDS011;17573;55.922;37.540;2023-04-15T14:38:10;10.48;;;6.95;;
30862;SDS011;17573;55.922;37.540;2023-04-15T14:40:36;13.02;;;5.13;;
30862;SDS011;17573;55.922;37.540;2023-04-15T14:43:02;12.73;;;5.53;;
30862;SDS011;17573;55.922;37.540;2023-04-15T14:45:28;7.55;;;4.53;;
30862;SDS011;17573;55.922;37.540;2023-04-15T14:47:55;20.58;;;5.50;;
30862;SDS011;17573;55.922;37.540;2023-04-15T14:50:21;29.17;;;7.65;;